createdAt,value
2019-03-30T00:01:01.546Z,16.73
2019-03-30T00:03:31.490Z,18.90
2019-03-30T00:06:01.457Z,16.27
2019-03-30T00:08:31.402Z,22.57
2019-03-30T00:11:01.705Z,19.60
2019-03-30T00:13:31.649Z,16.53
2019-03-30T00:16:01.614Z,19.30
2019-03-30T00:18:31.553Z,18.93
2019-03-30T00:21:01.534Z,16.63
2019-03-30T00:23:31.477Z,18.00
2019-03-30T00:26:01.447Z,19.20
2019-03-30T00:28:31.385Z,22.47
2019-03-30T00:31:01.932Z,21.00
2019-03-30T00:33:31.867Z,17.40
2019-03-30T00:36:01.835Z,16.67
2019-03-30T00:38:31.783Z,16.23
2019-03-30T00:41:01.745Z,14.97
2019-03-30T00:43:31.681Z,14.70
2019-03-30T00:46:01.654Z,15.47
2019-03-30T00:48:31.602Z,14.53
2019-03-30T00:51:01.649Z,14.27
2019-03-30T00:53:31.590Z,14.23
2019-03-30T00:56:01.564Z,14.17
2019-03-30T00:58:31.502Z,15.87
2019-03-30T01:01:05.558Z,22.47
2019-03-30T01:03:35.498Z,22.23
2019-03-30T01:06:05.538Z,22.43
2019-03-30T01:08:35.480Z,19.20
2019-03-30T01:11:05.514Z,18.77
2019-03-30T01:13:35.462Z,18.33
2019-03-30T01:16:06.470Z,16.40
2019-03-30T01:18:36.418Z,16.83
2019-03-30T01:21:06.393Z,16.70
2019-03-30T01:23:36.338Z,14.67
2019-03-30T01:26:06.306Z,15.50
2019-03-30T01:28:36.257Z,15.63
2019-03-30T01:31:07.768Z,16.30
2019-03-30T01:33:37.709Z,16.43
2019-03-30T01:36:07.689Z,15.53
2019-03-30T01:38:37.636Z,15.30
2019-03-30T01:41:07.599Z,15.80
2019-03-30T01:43:37.541Z,13.87
2019-03-30T01:46:07.509Z,15.77
2019-03-30T01:48:37.526Z,16.93
2019-03-30T01:51:07.497Z,15.77
2019-03-30T01:53:37.442Z,15.53
2019-03-30T01:56:07.410Z,15.57
2019-03-30T01:58:37.353Z,15.27
2019-03-30T02:01:07.493Z,16.63
2019-03-30T02:03:38.514Z,19.33
2019-03-30T02:06:08.481Z,19.47
2019-03-30T02:08:38.430Z,23.40
2019-03-30T02:11:08.409Z,24.87
2019-03-30T02:13:38.357Z,26.53
2019-03-30T02:16:08.406Z,25.03
2019-03-30T02:18:38.617Z,26.17
2019-03-30T02:21:08.577Z,21.87
2019-03-30T02:23:38.526Z,22.57
2019-03-30T02:26:08.509Z,21.00
2019-03-30T02:28:38.810Z,21.83
2019-03-30T02:31:08.850Z,22.07
2019-03-30T02:33:38.790Z,21.67
2019-03-30T02:36:08.754Z,20.43
2019-03-30T02:38:38.802Z,21.40
2019-03-30T02:41:09.375Z,21.33
2019-03-30T02:43:39.394Z,22.27
2019-03-30T02:46:09.366Z,21.60
2019-03-30T02:48:39.307Z,21.73
2019-03-30T02:51:09.395Z,21.13
2019-03-30T02:53:39.414Z,21.17
2019-03-30T02:56:09.387Z,21.13
2019-03-30T02:58:39.340Z,23.87
2019-03-30T03:01:09.299Z,23.57
2019-03-30T03:03:39.242Z,29.90
2019-03-30T03:06:09.206Z,28.37
2019-03-30T03:08:39.147Z,27.07
2019-03-30T03:11:09.148Z,22.67
2019-03-30T03:13:39.066Z,24.73
2019-03-30T03:16:09.061Z,24.53
2019-03-30T03:18:39.007Z,27.00
2019-03-30T03:21:09.125Z,26.23
2019-03-30T03:23:39.129Z,23.37
2019-03-30T03:26:09.093Z,22.97
2019-03-30T03:28:39.036Z,23.97
2019-03-30T03:31:08.999Z,21.60
2019-03-30T03:33:38.947Z,25.67
2019-03-30T03:36:08.918Z,24.43
2019-03-30T03:38:38.859Z,21.97
2019-03-30T03:41:09.004Z,22.47
2019-03-30T03:43:38.942Z,23.27
2019-03-30T03:46:08.910Z,24.47
2019-03-30T03:48:38.855Z,24.20
2019-03-30T03:51:25.064Z,30.83
2019-03-30T03:53:40.827Z,34.23
2019-03-30T03:56:11.430Z,36.17
2019-03-30T03:58:42.309Z,29.00
2019-03-30T04:01:14.687Z,27.30
2019-03-30T04:03:46.337Z,24.97
2019-03-30T04:06:17.543Z,25.53
2019-03-30T04:08:49.118Z,25.90
2019-03-30T04:11:20.126Z,29.77
2019-03-30T04:13:52.895Z,28.73
2019-03-30T04:16:22.842Z,27.43
2019-03-30T04:18:52.787Z,27.97
2019-03-30T04:21:22.755Z,29.77
2019-03-30T04:23:54.393Z,30.87
2019-03-30T04:26:24.358Z,32.57
2019-03-30T04:28:54.303Z,29.50
2019-03-30T04:31:24.269Z,33.60
2019-03-30T04:33:54.208Z,30.00
2019-03-30T04:36:24.213Z,29.17
2019-03-30T04:38:55.226Z,25.90
2019-03-30T04:41:25.202Z,27.13
2019-03-30T04:43:55.178Z,25.37
2019-03-30T04:46:25.160Z,23.97
2019-03-30T04:48:55.095Z,23.80
2019-03-30T04:51:25.070Z,23.57
2019-03-30T04:53:55.023Z,23.07
2019-03-30T04:56:24.990Z,23.63
2019-03-30T04:58:55.010Z,24.20
2019-03-30T05:01:24.967Z,24.47
2019-03-30T05:03:54.912Z,26.50
2019-03-30T05:06:24.884Z,27.70
2019-03-30T05:08:54.836Z,26.70
2019-03-30T05:11:24.817Z,25.83
2019-03-30T05:13:54.838Z,25.10
2019-03-30T05:16:24.833Z,26.40
2019-03-30T05:18:54.830Z,31.83
2019-03-30T05:21:24.745Z,32.43
2019-03-30T05:23:54.695Z,34.03
2019-03-30T05:26:24.664Z,34.03
2019-03-30T05:28:54.606Z,33.93
2019-03-30T05:31:24.588Z,34.70
2019-03-30T05:33:54.534Z,35.00
2019-03-30T05:36:24.511Z,36.87
2019-03-30T05:38:54.458Z,34.63
2019-03-30T05:41:24.450Z,33.67
2019-03-30T05:43:54.399Z,34.53
2019-03-30T05:46:24.346Z,34.20
2019-03-30T05:48:54.318Z,34.33
2019-03-30T05:51:24.289Z,34.23
2019-03-30T05:53:54.255Z,35.97
2019-03-30T05:56:24.207Z,35.87
2019-03-30T05:58:54.190Z,36.43
2019-03-30T06:01:24.142Z,36.47
2019-03-30T06:03:54.114Z,35.30
2019-03-30T06:06:24.075Z,36.53
2019-03-30T06:08:54.038Z,36.17
2019-03-30T06:11:23.986Z,36.20
2019-03-30T06:13:54.026Z,36.37
2019-03-30T06:16:23.976Z,35.17
2019-03-30T06:18:53.946Z,34.97
2019-03-30T06:21:23.895Z,37.43
2019-03-30T06:23:53.866Z,36.30
2019-03-30T06:26:23.892Z,36.27
2019-03-30T06:28:53.875Z,37.67
2019-03-30T06:31:23.822Z,37.13
2019-03-30T06:33:54.874Z,35.93
2019-03-30T06:36:24.818Z,37.53
2019-03-30T06:38:55.063Z,37.10
2019-03-30T06:41:25.014Z,37.17
2019-03-30T06:43:54.996Z,37.20
2019-03-30T06:46:24.947Z,36.80
2019-03-30T06:48:54.923Z,35.80
2019-03-30T06:51:24.873Z,38.43
2019-03-30T06:53:54.845Z,35.80
2019-03-30T06:56:24.795Z,38.00
2019-03-30T06:58:54.766Z,36.67
2019-03-30T07:01:24.795Z,35.80
2019-03-30T07:03:55.198Z,35.07
2019-03-30T07:06:27.085Z,36.60
2019-03-30T07:08:59.490Z,35.50
2019-03-30T07:11:32.598Z,34.90
2019-03-30T07:14:04.283Z,35.27
2019-03-30T07:16:36.334Z,35.67
2019-03-30T07:19:06.999Z,36.50
2019-03-30T07:21:37.730Z,36.23
2019-03-30T07:24:08.530Z,33.73
2019-03-30T07:26:38.921Z,33.80
2019-03-30T07:29:10.891Z,34.33
2019-03-30T07:31:41.037Z,32.97
2019-03-30T07:34:12.005Z,32.17
2019-03-30T07:36:42.803Z,30.87
2019-03-30T07:39:12.784Z,26.67
2019-03-30T07:41:42.747Z,26.73
2019-03-30T07:44:12.752Z,27.33
2019-03-30T07:46:42.667Z,25.90
2019-03-30T07:49:12.638Z,26.37
2019-03-30T07:51:42.590Z,25.63
2019-03-30T07:54:12.562Z,23.80
2019-03-30T07:56:42.525Z,23.47
2019-03-30T07:59:12.494Z,22.33
2019-03-30T08:01:43.525Z,22.43
2019-03-30T08:04:13.497Z,23.17
2019-03-30T08:06:43.447Z,21.90
2019-03-30T08:09:13.418Z,22.00
2019-03-30T08:11:44.390Z,21.70
2019-03-30T08:14:14.376Z,21.40
2019-03-30T08:16:44.335Z,22.47
2019-03-30T08:19:14.315Z,20.23
2019-03-30T08:21:44.270Z,19.80
2019-03-30T08:24:14.252Z,20.23
2019-03-30T08:26:44.207Z,19.70
2019-03-30T08:29:14.192Z,18.07
2019-03-30T08:31:44.157Z,18.70
2019-03-30T08:34:15.206Z,17.83
2019-03-30T08:36:45.162Z,19.57
2019-03-30T08:39:15.153Z,19.67
2019-03-30T08:41:45.111Z,19.23
2019-03-30T08:44:15.100Z,21.30
2019-03-30T08:46:45.059Z,19.53
2019-03-30T08:49:16.106Z,18.43
2019-03-30T08:51:46.066Z,20.07
2019-03-30T08:54:16.062Z,19.57
2019-03-30T08:56:46.024Z,19.70
2019-03-30T08:59:16.008Z,17.87
2019-03-30T09:01:45.973Z,17.50
2019-03-30T09:04:15.950Z,15.90
2019-03-30T09:06:45.919Z,17.00
2019-03-30T09:09:15.902Z,15.87
2019-03-30T09:11:45.854Z,15.80
2019-03-30T09:14:15.864Z,14.80
2019-03-30T09:16:45.815Z,17.37
2019-03-30T09:19:15.806Z,15.10
2019-03-30T09:21:45.759Z,14.13
2019-03-30T09:24:15.752Z,13.60
2019-03-30T09:26:45.702Z,13.57
2019-03-30T09:29:15.682Z,11.27
2019-03-30T09:31:45.638Z,12.57
2019-03-30T09:34:16.097Z,10.57
2019-03-30T09:36:46.143Z,9.20
2019-03-30T09:39:16.802Z,9.53
2019-03-30T09:41:46.762Z,8.97
2019-03-30T09:44:17.726Z,9.90
2019-03-30T09:46:47.776Z,10.27
2019-03-30T09:49:17.733Z,8.00
2019-03-30T09:51:47.708Z,8.20
2019-03-30T09:54:23.848Z,8.40
2019-03-30T09:56:50.324Z,9.73
2019-03-30T09:59:20.278Z,10.07
2019-03-30T10:01:50.254Z,10.03
2019-03-30T10:04:20.217Z,9.33
2019-03-30T10:06:50.183Z,9.90
2019-03-30T10:09:20.130Z,9.73
2019-03-30T10:11:50.117Z,10.43
2019-03-30T10:14:20.074Z,10.37
2019-03-30T10:16:51.892Z,10.03
2019-03-30T10:19:23.668Z,11.17
2019-03-30T10:21:53.714Z,10.90
2019-03-30T10:24:37.119Z,11.20
2019-03-30T10:26:55.270Z,11.03
2019-03-30T10:29:25.233Z,11.60
2019-03-30T10:31:55.206Z,10.23
2019-03-30T10:34:25.171Z,10.93
2019-03-30T10:36:55.154Z,11.57
2019-03-30T10:39:25.111Z,10.70
2019-03-30T10:41:55.096Z,11.07
2019-03-30T10:44:25.056Z,11.73
2019-03-30T10:46:55.042Z,11.30
2019-03-30T10:49:25.053Z,11.03
2019-03-30T10:51:55.035Z,10.57
2019-03-30T10:54:25.011Z,10.63
2019-03-30T10:56:54.979Z,11.10
2019-03-30T10:59:24.934Z,9.67
2019-03-30T11:01:54.917Z,8.87
2019-03-30T11:04:24.938Z,9.03
2019-03-30T11:06:54.907Z,8.93
2019-03-30T11:09:25.976Z,10.07
2019-03-30T11:11:56.006Z,9.40
2019-03-30T11:14:25.974Z,9.17
2019-03-30T11:16:55.941Z,8.83
2019-03-30T11:19:25.975Z,8.50
2019-03-30T11:21:55.950Z,9.13
2019-03-30T11:24:25.900Z,7.40
2019-03-30T11:26:55.873Z,8.97
2019-03-30T11:29:25.894Z,8.33
2019-03-30T11:31:55.902Z,8.03
2019-03-30T11:34:25.845Z,7.33
2019-03-30T11:36:55.833Z,8.20
2019-03-30T11:39:25.788Z,7.47
2019-03-30T11:41:55.758Z,8.17
2019-03-30T11:44:25.778Z,8.27
2019-03-30T11:46:55.760Z,8.10
2019-03-30T11:49:25.728Z,8.40
2019-03-30T11:51:55.678Z,7.43
2019-03-30T11:54:25.628Z,7.40
2019-03-30T11:56:55.598Z,7.50
2019-03-30T11:59:25.550Z,6.70
2019-03-30T12:01:55.522Z,6.67
2019-03-30T12:04:25.524Z,6.50
2019-03-30T12:06:56.518Z,6.70
2019-03-30T12:09:26.539Z,6.40
2019-03-30T12:11:56.512Z,6.30
2019-03-30T12:14:26.459Z,6.97
2019-03-30T12:16:56.431Z,8.47
2019-03-30T12:19:26.383Z,8.07
2019-03-30T12:21:56.459Z,7.07
2019-03-30T12:24:26.406Z,7.67
2019-03-30T12:26:56.379Z,7.17
2019-03-30T12:29:26.344Z,7.77
2019-03-30T12:31:56.321Z,6.97
2019-03-30T12:34:27.231Z,7.63
2019-03-30T12:36:57.203Z,7.67
2019-03-30T12:39:27.150Z,8.00
2019-03-30T12:41:57.146Z,7.90
2019-03-30T12:44:27.081Z,8.23
2019-03-30T12:46:57.066Z,7.40
2019-03-30T12:49:27.019Z,7.90
2019-03-30T12:51:57.004Z,8.00
2019-03-30T12:54:26.962Z,7.90
2019-03-30T12:56:58.006Z,6.70
2019-03-30T12:59:28.032Z,7.90
2019-03-30T13:01:58.097Z,7.53
2019-03-30T13:04:28.093Z,7.67
2019-03-30T13:06:58.067Z,8.63
2019-03-30T13:09:28.015Z,8.63
2019-03-30T13:11:57.985Z,9.03
2019-03-30T13:14:27.938Z,8.53
2019-03-30T13:16:57.925Z,9.20
2019-03-30T13:19:27.888Z,9.90
2019-03-30T13:21:57.862Z,9.63
2019-03-30T13:24:27.814Z,11.00
2019-03-30T13:26:57.795Z,11.07
2019-03-30T13:29:27.751Z,10.97
2019-03-30T13:31:57.730Z,10.07
2019-03-30T13:34:27.683Z,9.40
2019-03-30T13:36:57.659Z,10.00
2019-03-30T13:39:27.625Z,10.87
2019-03-30T13:41:57.609Z,10.57
2019-03-30T13:44:27.560Z,10.10
2019-03-30T13:46:57.537Z,9.37
2019-03-30T13:49:29.604Z,9.70
2019-03-30T13:51:59.090Z,9.93
2019-03-30T13:54:29.052Z,9.57
2019-03-30T13:56:59.023Z,9.63
2019-03-30T13:59:28.977Z,9.57
2019-03-30T14:01:59.125Z,10.03
2019-03-30T14:04:29.086Z,10.00
2019-03-30T14:06:59.056Z,9.50
2019-03-30T14:09:29.015Z,10.55
2019-03-30T14:11:58.996Z,9.05
2019-03-30T14:14:28.942Z,9.10
2019-03-30T14:16:58.951Z,8.55
2019-03-30T14:19:28.866Z,8.45
2019-03-30T14:21:58.871Z,9.67
2019-03-30T14:24:28.818Z,9.50
2019-03-30T14:26:58.798Z,9.25
2019-03-30T14:29:28.773Z,8.70
2019-03-30T14:31:58.719Z,9.23
2019-03-30T14:34:28.704Z,10.03
2019-03-30T14:36:58.672Z,10.03
2019-03-30T14:39:28.650Z,9.35
2019-03-30T14:41:58.608Z,9.88
2019-03-30T14:44:28.579Z,9.48
2019-03-30T14:46:58.526Z,9.48
2019-03-30T14:49:28.499Z,9.23
2019-03-30T14:51:58.523Z,9.28
2019-03-30T14:54:28.500Z,9.93
2019-03-30T14:56:58.452Z,9.13
2019-03-30T14:59:28.435Z,10.08
2019-03-30T15:01:58.400Z,9.98
2019-03-30T15:04:28.385Z,10.60
2019-03-30T15:06:58.338Z,10.53
2019-03-30T15:09:28.320Z,10.40
2019-03-30T15:11:58.288Z,9.53
2019-03-30T15:14:28.258Z,9.63
2019-03-30T15:16:58.214Z,9.50
2019-03-30T15:19:28.183Z,11.27
2019-03-30T15:21:58.140Z,10.43
2019-03-30T15:24:28.132Z,9.87
2019-03-30T15:27:00.308Z,10.75
2019-03-30T15:29:29.762Z,9.83
2019-03-30T15:31:59.706Z,17.90
2019-03-30T15:34:29.682Z,11.30
2019-03-30T15:36:59.638Z,10.20
2019-03-30T15:39:29.614Z,9.80
2019-03-30T15:41:59.566Z,9.57
2019-03-30T15:44:29.546Z,10.33
2019-03-30T15:46:59.496Z,9.60
2019-03-30T15:49:29.483Z,10.37
2019-03-30T15:52:12.990Z,9.67
2019-03-30T15:54:31.030Z,9.87
2019-03-30T15:57:13.463Z,9.93
2019-03-30T15:59:32.594Z,9.60
2019-03-30T16:02:02.556Z,9.67
2019-03-30T16:04:32.527Z,9.60
2019-03-30T16:07:02.494Z,9.23
2019-03-30T16:09:32.563Z,9.27
2019-03-30T16:12:02.514Z,9.07
2019-03-30T16:14:32.482Z,9.40
2019-03-30T16:17:02.445Z,9.73
2019-03-30T16:19:32.423Z,9.80
2019-03-30T16:22:02.368Z,9.73
2019-03-30T16:24:32.406Z,8.73
2019-03-30T16:27:02.354Z,9.30
2019-03-30T16:29:32.326Z,9.10
2019-03-30T16:32:02.293Z,15.33
2019-03-30T16:34:32.281Z,10.10
2019-03-30T16:37:02.230Z,9.93
2019-03-30T16:39:34.810Z,10.87
2019-03-30T16:42:03.962Z,18.23
2019-03-30T16:44:33.938Z,11.10
2019-03-30T16:47:03.896Z,16.13
2019-03-30T16:49:33.874Z,10.83
2019-03-30T16:52:03.830Z,11.33
2019-03-30T16:54:33.819Z,12.73
2019-03-30T16:57:03.770Z,13.53
2019-03-30T16:59:33.750Z,24.20
2019-03-30T17:02:03.785Z,15.17
2019-03-30T17:04:33.773Z,19.53
2019-03-30T17:07:03.789Z,14.20
2019-03-30T17:09:33.776Z,11.17
2019-03-30T17:12:03.744Z,13.53
2019-03-30T17:14:33.718Z,12.87
2019-03-30T17:17:05.329Z,12.37
2019-03-30T17:19:35.320Z,12.37
2019-03-30T17:22:05.279Z,13.73
2019-03-30T17:24:35.431Z,12.13
2019-03-30T17:27:05.462Z,13.70
2019-03-30T17:29:35.521Z,15.57
2019-03-30T17:32:05.560Z,15.90
2019-03-30T17:34:35.534Z,13.53
2019-03-30T17:37:05.494Z,14.33
2019-03-30T17:39:35.537Z,13.40
2019-03-30T17:42:05.502Z,14.40
2019-03-30T17:44:35.483Z,14.80
2019-03-30T17:47:05.611Z,14.43
2019-03-30T17:49:35.590Z,15.63
2019-03-30T17:52:05.551Z,15.03
2019-03-30T17:54:35.522Z,16.00
2019-03-30T17:57:05.479Z,14.80
2019-03-30T17:59:35.475Z,13.03
2019-03-30T18:02:05.511Z,16.73
2019-03-30T18:04:38.795Z,17.50
2019-03-30T18:07:07.090Z,15.87
2019-03-30T18:09:37.046Z,18.43
2019-03-30T18:12:07.037Z,18.27
2019-03-30T18:14:36.992Z,16.97
2019-03-30T18:17:06.974Z,16.97
2019-03-30T18:19:36.927Z,17.23
2019-03-30T18:22:06.911Z,21.63
2019-03-30T18:24:36.884Z,19.87
2019-03-30T18:27:08.386Z,21.40
2019-03-30T18:29:38.574Z,23.37
2019-03-30T18:32:08.883Z,27.23
2019-03-30T18:34:41.273Z,25.53
2019-03-30T18:37:12.390Z,32.17
2019-03-30T18:39:43.145Z,66.27
2019-03-30T18:42:15.321Z,51.63
2019-03-30T18:44:46.362Z,78.43
2019-03-30T18:47:16.419Z,68.40
2019-03-30T18:49:48.116Z,56.43
2019-03-30T18:52:19.594Z,47.03
2019-03-30T18:54:51.003Z,45.30
2019-03-30T18:57:21.246Z,37.47
2019-03-30T18:59:52.013Z,41.57
2019-03-30T19:02:22.358Z,39.03
2019-03-30T19:04:52.399Z,36.23
2019-03-30T19:07:22.394Z,37.23
2019-03-30T19:09:53.514Z,34.40
2019-03-30T19:12:23.933Z,34.47
2019-03-30T19:14:56.106Z,32.30
2019-03-30T19:17:28.044Z,64.73
2019-03-30T19:19:58.901Z,109.30
2019-03-30T19:22:29.002Z,48.57
2019-03-30T19:24:59.646Z,30.03
2019-03-30T19:27:30.387Z,59.17
2019-03-30T19:30:03.275Z,41.73
2019-03-30T19:32:33.438Z,44.33
2019-03-30T19:35:04.645Z,40.60
2019-03-30T19:37:34.632Z,45.30
2019-03-30T19:40:06.038Z,51.07
2019-03-30T19:42:36.039Z,50.87
2019-03-30T19:45:07.243Z,49.10
2019-03-30T19:47:37.231Z,50.03
2019-03-30T19:50:07.456Z,25.93
2019-03-30T19:52:40.159Z,25.63
2019-03-30T19:55:09.082Z,25.63
2019-03-30T19:57:39.055Z,23.77
2019-03-30T20:00:13.229Z,22.80
2019-03-30T20:02:43.266Z,19.80
2019-03-30T20:05:14.051Z,21.10
2019-03-30T20:07:44.191Z,19.27
2019-03-30T20:10:14.286Z,18.17
2019-03-30T20:12:44.251Z,18.23
2019-03-30T20:15:14.551Z,18.60
2019-03-30T20:17:44.612Z,21.83
2019-03-30T20:20:14.691Z,21.03
2019-03-30T20:22:44.662Z,22.97
2019-03-30T20:25:14.606Z,22.90
2019-03-30T20:27:44.584Z,21.87
2019-03-30T20:30:14.875Z,23.87
2019-03-30T20:32:44.849Z,25.37
2019-03-30T20:35:15.830Z,22.13
2019-03-30T20:37:45.809Z,26.43
2019-03-30T20:40:15.826Z,92.07
2019-03-30T20:42:45.905Z,88.13
2019-03-30T20:45:16.198Z,140.20
2019-03-30T20:47:46.187Z,70.17
2019-03-30T20:50:16.310Z,54.70
2019-03-30T20:52:46.400Z,39.07
2019-03-30T20:55:16.348Z,28.03
2019-03-30T20:57:46.319Z,30.47
2019-03-30T21:00:16.774Z,29.37
2019-03-30T21:02:46.747Z,27.73
2019-03-30T21:05:16.704Z,29.67
2019-03-30T21:07:46.684Z,37.07
2019-03-30T21:10:16.970Z,34.93
2019-03-30T21:12:46.943Z,54.00
2019-03-30T21:15:16.895Z,54.10
2019-03-30T21:17:46.870Z,47.07
2019-03-30T21:20:17.962Z,58.07
2019-03-30T21:22:47.940Z,49.77
2019-03-30T21:25:17.890Z,46.50
2019-03-30T21:27:47.867Z,43.33
2019-03-30T21:30:18.327Z,43.70
2019-03-30T21:32:48.367Z,45.47
2019-03-30T21:35:18.401Z,46.77
2019-03-30T21:37:48.377Z,41.37
2019-03-30T21:40:18.322Z,38.53
2019-03-30T21:42:48.294Z,35.00
2019-03-30T21:45:18.248Z,33.73
2019-03-30T21:47:48.214Z,33.70
2019-03-30T21:50:18.162Z,34.03
2019-03-30T21:52:48.149Z,32.93
2019-03-30T21:55:18.106Z,31.17
2019-03-30T21:57:48.078Z,30.87
2019-03-30T22:00:39.223Z,30.40
2019-03-30T22:03:09.360Z,30.37
2019-03-30T22:05:39.426Z,30.43
2019-03-30T22:08:09.451Z,30.10
2019-03-30T22:10:39.372Z,30.00
2019-03-30T22:13:09.341Z,41.87
2019-03-30T22:15:39.291Z,69.37
2019-03-30T22:18:09.267Z,39.17
2019-03-30T22:20:39.214Z,38.27
2019-03-30T22:23:09.187Z,39.70
2019-03-30T22:25:39.152Z,40.90
2019-03-30T22:28:09.125Z,42.30
2019-03-30T22:30:39.089Z,37.37
2019-03-30T22:33:09.063Z,50.30
2019-03-30T22:35:39.010Z,58.77
2019-03-30T22:38:09.000Z,99.13
2019-03-30T22:40:41.367Z,73.20
2019-03-30T22:43:10.546Z,59.53
2019-03-30T22:45:41.189Z,59.40
2019-03-30T22:48:11.165Z,73.80
2019-03-30T22:50:41.121Z,55.83
2019-03-30T22:53:11.108Z,41.73
2019-03-30T22:55:41.056Z,44.50
2019-03-30T22:58:11.040Z,39.10
2019-03-30T23:00:42.628Z,31.13
2019-03-30T23:03:14.374Z,30.77
2019-03-30T23:05:44.318Z,47.17
2019-03-30T23:08:14.294Z,75.07
2019-03-30T23:10:44.246Z,60.03
2019-03-30T23:13:14.240Z,60.17
2019-03-30T23:15:44.191Z,56.50
2019-03-30T23:18:14.267Z,49.17
2019-03-30T23:20:44.343Z,34.20
2019-03-30T23:23:14.314Z,32.90
2019-03-30T23:25:44.270Z,33.87
2019-03-30T23:28:14.273Z,88.67
2019-03-30T23:30:54.035Z,64.37
2019-03-30T23:33:16.103Z,34.50
2019-03-30T23:35:46.051Z,27.10
2019-03-30T23:38:16.993Z,28.20
2019-03-30T23:40:46.942Z,45.63
2019-03-30T23:43:16.915Z,67.70
2019-03-30T23:45:46.871Z,68.40
2019-03-30T23:48:16.847Z,54.27
2019-03-30T23:50:46.802Z,76.17
2019-03-30T23:53:16.789Z,53.07
2019-03-30T23:55:46.893Z,53.93
2019-03-30T23:58:16.863Z,33.00
